Time;durP1;ratioP1;P1;durP2;ratioP2;P2;SDS_P1;SDS_P2;PMS_P1;PMS_P2;Temp;Humidity;BMP_temperature;BMP_pressure;BME280_temperature;BME280_humidity;BME280_pressure;Samples;Min_cycle;Max_cycle;Signal;HPM_P1;HPM_P2
2022/12/21 00:02:24;;;;;;;15.23;1.67;;;;;;;;;;6148668;23;20021;-60
2022/12/21 00:04:55;;;;;;;19.38;1.65;;;;;;;;;;6154227;23;20128;-60
2022/12/21 00:07:23;;;;;;;15.30;1.58;;;;;;;;;;6151475;23;20503;-60
2022/12/21 00:09:51;;;;;;;20.97;1.50;;;;;;;;;;6142137;23;20097;-60
2022/12/21 00:12:18;;;;;;;12.43;1.30;;;;;;;;;;6153506;23;20048;-60
2022/12/21 00:14:46;;;;;;;11.30;1.20;;;;;;;;;;6140679;23;20396;-60
2022/12/21 00:17:14;;;;;;;20.65;2.08;;;;;;;;;;6152772;23;20048;-60
2022/12/21 00:19:43;;;;;;;13.30;1.35;;;;;;;;;;6144898;23;20047;-60
2022/12/21 00:22:13;;;;;;;12.87;1.13;;;;;;;;;;6150076;23;20452;-60
2022/12/21 00:24:40;;;;;;;15.27;1.73;;;;;;;;;;6146917;23;20436;-59
2022/12/21 00:27:08;;;;;;;13.32;1.30;;;;;;;;;;6153329;23;20331;-60
2022/12/21 00:29:36;;;;;;;16.25;1.63;;;;;;;;;;6148287;23;20421;-60
2022/12/21 00:32:04;;;;;;;14.32;1.23;;;;;;;;;;6156050;23;20403;-59
2022/12/21 00:34:32;;;;;;;19.93;1.80;;;;;;;;;;6143546;23;20455;-60
2022/12/21 00:37:01;;;;;;;14.98;1.88;;;;;;;;;;6152494;23;20044;-59
2022/12/21 00:39:30;;;;;;;9.48;1.08;;;;;;;;;;6145197;23;20013;-60
2022/12/21 00:41:57;;;;;;;25.77;1.90;;;;;;;;;;6153513;23;20049;-60
2022/12/21 00:44:25;;;;;;;14.55;1.50;;;;;;;;;;6146337;23;20401;-59
2022/12/21 00:46:54;;;;;;;18.90;1.60;;;;;;;;;;6149690;23;20404;-60
2022/12/21 00:49:24;;;;;;;18.52;1.75;;;;;;;;;;6154957;23;20043;-60
2022/12/21 00:51:53;;;;;;;11.80;1.48;;;;;;;;;;6151408;23;20092;-60
2022/12/21 00:54:20;;;;;;;17.10;1.67;;;;;;;;;;6158767;23;20017;-60
2022/12/21 00:56:50;;;;;;;19.13;1.70;;;;;;;;;;6146322;23;20043;-59
2022/12/21 00:59:17;;;;;;;10.83;1.07;;;;;;;;;;6151728;23;20013;-60
2022/12/21 01:01:46;;;;;;;13.50;1.65;;;;;;;;;;6149526;23;20635;-60
2022/12/21 01:04:13;;;;;;;13.77;1.33;;;;;;;;;;6154076;23;20020;-60
2022/12/21 01:06:41;;;;;;;16.60;1.83;;;;;;;;;;6157705;23;20020;-59
2022/12/21 01:09:10;;;;;;;14.30;1.33;;;;;;;;;;6152789;23;20104;-60
2022/12/21 01:11:38;;;;;;;22.90;2.20;;;;;;;;;;6157953;23;20013;-60
2022/12/21 01:14:07;;;;;;;17.02;1.63;;;;;;;;;;6153436;23;20096;-60
2022/12/21 01:16:34;;;;;;;21.05;2.38;;;;;;;;;;6154052;23;20091;-60
2022/12/21 01:19:03;;;;;;;15.38;2.30;;;;;;;;;;6152370;23;20379;-60
2022/12/21 01:21:31;;;;;;;12.75;1.30;;;;;;;;;;6154321;23;20029;-60
2022/12/21 01:24:00;;;;;;;15.87;1.73;;;;;;;;;;6161062;23;20076;-59
2022/12/21 01:26:27;;;;;;;21.35;1.65;;;;;;;;;;6153698;23;20017;-60
2022/12/21 01:28:55;;;;;;;15.43;2.10;;;;;;;;;;6158692;23;20045;-60
2022/12/21 01:31:24;;;;;;;17.70;2.33;;;;;;;;;;6148142;23;20017;-60
2022/12/21 01:33:52;;;;;;;15.13;2.38;;;;;;;;;;6156475;23;20017;-60
2022/12/21 01:36:20;;;;;;;15.37;1.23;;;;;;;;;;6155238;23;20019;-60
2022/12/21 01:38:48;;;;;;;14.65;1.63;;;;;;;;;;6161966;23;20444;-60
2022/12/21 01:41:18;;;;;;;13.63;1.10;;;;;;;;;;6150372;23;20064;-60
2022/12/21 01:43:47;;;;;;;17.30;1.30;;;;;;;;;;6155258;23;20024;-60
2022/12/21 01:46:18;;;;;;;18.08;1.67;;;;;;;;;;6147849;23;20811;-60
2022/12/21 01:48:51;;;;;;;24.20;1.50;;;;;;;;;;6153490;23;20041;-60
2022/12/21 01:51:19;;;;;;;15.18;1.20;;;;;;;;;;6160008;23;20017;-60
2022/12/21 01:53:51;;;;;;;11.52;1.40;;;;;;;;;;6151894;23;20455;-60
2022/12/21 01:56:21;;;;;;;19.33;1.45;;;;;;;;;;6143182;23;20013;-60
2022/12/21 01:58:49;;;;;;;14.63;1.70;;;;;;;;;;6154837;23;20013;-60
2022/12/21 02:01:17;;;;;;;11.30;1.10;;;;;;;;;;6152170;23;20053;-60
2022/12/21 02:03:47;;;;;;;15.85;1.50;;;;;;;;;;6150958;23;20088;-60
2022/12/21 02:06:17;;;;;;;18.95;1.25;;;;;;;;;;6151747;23;20025;-60
2022/12/21 02:08:45;;;;;;;11.05;1.08;;;;;;;;;;6150984;23;20013;-60
2022/12/21 02:11:15;;;;;;;12.25;1.45;;;;;;;;;;6136954;23;20399;-60
2022/12/21 02:13:43;;;;;;;18.77;1.57;;;;;;;;;;6141653;23;20013;-60
2022/12/21 02:16:16;;;;;;;17.95;1.40;;;;;;;;;;6163254;23;20013;-60
2022/12/21 02:18:53;;;;;;;15.82;1.35;;;;;;;;;;6148505;23;20443;-60
2022/12/21 02:21:27;;;;;;;16.15;1.55;;;;;;;;;;6146583;23;20071;-60
2022/12/21 02:24:13;;;;;;;15.32;1.88;;;;;;;;;;6149885;23;20013;-60
2022/12/21 02:26:48;;;;;;;11.90;1.60;;;;;;;;;;6116790;23;20076;-60
2022/12/21 02:29:31;;;;;;;13.35;1.75;;;;;;;;;;6158149;23;20100;-60
2022/12/21 02:32:05;;;;;;;8.27;1.10;;;;;;;;;;6147162;23;20017;-60
2022/12/21 02:34:35;;;;;;;14.15;1.23;;;;;;;;;;6150891;23;20036;-60
2022/12/21 02:37:06;;;;;;;18.30;1.63;;;;;;;;;;6156979;23;20017;-60
2022/12/21 02:39:41;;;;;;;8.90;1.17;;;;;;;;;;6148954;23;20072;-60
2022/12/21 02:44:12;;;;;;;12.38;1.65;;;;;;;;;;6153960;23;20108;-60
2022/12/21 02:45:04;;;;;;;16.70;1.65;;;;;;;;;;6157924;23;20013;-60
2022/12/21 02:47:36;;;;;;;11.25;1.23;;;;;;;;;;6131249;23;20117;-60
2022/12/21 02:50:06;;;;;;;13.57;1.30;;;;;;;;;;6154516;23;20618;-60
2022/12/21 02:52:37;;;;;;;9.90;1.20;;;;;;;;;;6156920;23;20017;-60
2022/12/21 02:55:05;;;;;;;15.45;1.50;;;;;;;;;;6154070;23;20096;-60
2022/12/21 02:57:33;;;;;;;9.60;1.15;;;;;;;;;;6156214;23;20455;-60
2022/12/21 03:00:03;;;;;;;12.57;1.20;;;;;;;;;;6143715;23;20422;-60
2022/12/21 03:02:43;;;;;;;17.25;1.42;;;;;;;;;;6156253;23;20016;-60
2022/12/21 03:05:17;;;;;;;11.27;1.00;;;;;;;;;;6152302;23;20017;-60
2022/12/21 03:07:52;;;;;;;13.68;1.13;;;;;;;;;;6155763;23;20017;-60
2022/12/21 03:10:24;;;;;;;15.30;1.00;;;;;;;;;;6157271;23;20503;-59
2022/12/21 03:12:56;;;;;;;7.95;0.55;;;;;;;;;;6149128;23;20384;-60
2022/12/21 03:15:29;;;;;;;7.05;0.68;;;;;;;;;;6159337;23;20013;-60
2022/12/21 03:18:01;;;;;;;10.57;1.10;;;;;;;;;;6142144;23;20579;-60
2022/12/21 03:20:31;;;;;;;11.32;0.85;;;;;;;;;;6155717;23;20091;-60
2022/12/21 03:23:01;;;;;;;7.53;1.15;;;;;;;;;;6160905;23;20095;-56
2022/12/21 03:25:31;;;;;;;11.05;1.10;;;;;;;;;;6149619;23;20702;-60
2022/12/21 03:28:01;;;;;;;10.68;0.90;;;;;;;;;;6154634;23;20017;-60
2022/12/21 03:30:30;;;;;;;13.20;0.80;;;;;;;;;;6153936;23;20533;-60
2022/12/21 03:33:01;;;;;;;9.32;0.75;;;;;;;;;;6149456;23;20120;-60
2022/12/21 03:35:30;;;;;;;11.30;1.10;;;;;;;;;;6149993;23;20523;-60
2022/12/21 03:37:58;;;;;;;11.88;0.70;;;;;;;;;;6160923;23;20064;-60
2022/12/21 03:40:26;;;;;;;8.20;0.80;;;;;;;;;;6153806;23;20016;-60
2022/12/21 03:42:57;;;;;;;10.30;1.40;;;;;;;;;;6149729;23;20353;-60
2022/12/21 03:45:27;;;;;;;13.10;1.00;;;;;;;;;;6153463;23;20017;-60
2022/12/21 03:47:58;;;;;;;10.15;1.20;;;;;;;;;;6154203;23;20078;-60
2022/12/21 03:50:29;;;;;;;10.43;0.90;;;;;;;;;;6151934;23;20072;-60
2022/12/21 03:53:03;;;;;;;8.98;1.20;;;;;;;;;;6153071;23;20195;-60
2022/12/21 03:55:32;;;;;;;11.47;1.57;;;;;;;;;;6159274;23;20040;-60
2022/12/21 03:58:01;;;;;;;11.23;0.88;;;;;;;;;;6145289;23;20515;-60
2022/12/21 04:00:31;;;;;;;13.70;1.02;;;;;;;;;;6155227;23;20021;-60
2022/12/21 04:03:08;;;;;;;12.07;1.05;;;;;;;;;;6146382;23;20017;-60
2022/12/21 04:05:41;;;;;;;11.93;0.70;;;;;;;;;;6150975;23;20021;-60
2022/12/21 04:08:09;;;;;;;13.20;0.97;;;;;;;;;;6180586;23;20068;-60
2022/12/21 04:10:37;;;;;;;7.78;0.70;;;;;;;;;;6149120;23;20407;-60
2022/12/21 04:13:03;;;;;;;12.20;0.98;;;;;;;;;;6157385;23;20020;-60
2022/12/21 04:18:13;;;;;;;9.38;0.75;;;;;;;;;;6155488;23;20124;-60
2022/12/21 04:20:41;;;;;;;13.83;1.33;;;;;;;;;;6128135;23;20045;-59
2022/12/21 04:28:39;;;;;;;8.18;0.70;;;;;;;;;;6142593;23;20024;-58
2022/12/21 04:31:19;;;;;;;10.18;1.17;;;;;;;;;;6161190;23;20017;-60
2022/12/21 04:33:47;;;;;;;7.17;0.57;;;;;;;;;;6153413;23;20072;-60
2022/12/21 04:39:01;;;;;;;7.10;0.60;;;;;;;;;;6152884;23;20017;-59
2022/12/21 04:41:30;;;;;;;6.60;0.57;;;;;;;;;;6124548;23;20021;-60
2022/12/21 04:43:58;;;;;;;11.13;0.75;;;;;;;;;;6159541;23;20052;-60
2022/12/21 04:46:26;;;;;;;11.20;0.67;;;;;;;;;;6144331;23;20512;-60
2022/12/21 04:48:54;;;;;;;9.98;0.60;;;;;;;;;;6145592;23;20021;-60
2022/12/21 04:51:23;;;;;;;5.28;0.50;;;;;;;;;;6152645;23;20320;-60
2022/12/21 04:53:51;;;;;;;6.55;0.40;;;;;;;;;;6149116;23;20574;-60
2022/12/21 04:56:19;;;;;;;3.92;0.32;;;;;;;;;;6152157;23;20628;-60
2022/12/21 04:58:46;;;;;;;4.87;0.50;;;;;;;;;;6151740;23;20666;-60
2022/12/21 05:01:15;;;;;;;8.60;0.55;;;;;;;;;;6144731;23;20053;-60
2022/12/21 05:03:43;;;;;;;5.75;0.60;;;;;;;;;;6152256;23;20017;-60
2022/12/21 05:06:12;;;;;;;10.85;0.65;;;;;;;;;;6140144;23;20021;-60
2022/12/21 05:08:41;;;;;;;11.80;0.73;;;;;;;;;;6159508;23;20303;-58
2022/12/21 05:11:09;;;;;;;8.40;0.63;;;;;;;;;;6148238;23;20089;-60
2022/12/21 05:13:37;;;;;;;10.20;0.70;;;;;;;;;;6153516;23;20088;-60
2022/12/21 05:16:05;;;;;;;10.38;0.85;;;;;;;;;;6144809;23;20017;-60
2022/12/21 05:18:33;;;;;;;10.13;0.77;;;;;;;;;;6141615;23;20364;-60
2022/12/21 05:21:01;;;;;;;11.10;0.60;;;;;;;;;;6156950;23;20044;-59
2022/12/21 05:23:28;;;;;;;13.63;1.60;;;;;;;;;;6145295;23;20417;-60
2022/12/21 05:25:57;;;;;;;3.22;0.30;;;;;;;;;;6159014;23;20075;-60
2022/12/21 05:28:25;;;;;;;12.30;0.88;;;;;;;;;;6151166;23;20021;-60
2022/12/21 05:30:53;;;;;;;11.65;0.85;;;;;;;;;;6153205;23;20013;-61
2022/12/21 05:33:21;;;;;;;8.32;0.68;;;;;;;;;;6153080;23;20029;-59
2022/12/21 05:35:49;;;;;;;9.67;0.63;;;;;;;;;;6155153;23;20463;-60
2022/12/21 05:38:17;;;;;;;7.75;0.52;;;;;;;;;;6145568;23;20017;-60
2022/12/21 05:40:47;;;;;;;9.10;0.40;;;;;;;;;;6149671;23;20826;-60
2022/12/21 05:43:17;;;;;;;13.50;0.70;;;;;;;;;;6155279;23;20034;-60
2022/12/21 05:45:45;;;;;;;7.03;0.68;;;;;;;;;;6145506;23;20071;-59
2022/12/21 05:48:13;;;;;;;11.70;0.70;;;;;;;;;;6158698;23;20440;-60
2022/12/21 05:50:41;;;;;;;9.45;0.50;;;;;;;;;;6147972;23;20044;-60
2022/12/21 05:53:11;;;;;;;9.98;0.50;;;;;;;;;;6155881;23;20013;-60
2022/12/21 05:55:42;;;;;;;8.30;0.60;;;;;;;;;;6149945;23;20027;-59
2022/12/21 05:58:10;;;;;;;6.18;0.55;;;;;;;;;;6154851;23;20017;-60
2022/12/21 06:00:45;;;;;;;6.73;0.40;;;;;;;;;;6152470;23;20072;-60
2022/12/21 06:03:14;;;;;;;10.85;0.60;;;;;;;;;;6159267;23;20041;-60
2022/12/21 06:05:42;;;;;;;14.63;0.57;;;;;;;;;;6149988;23;20027;-60
2022/12/21 06:08:10;;;;;;;4.60;0.60;;;;;;;;;;6157305;23;20091;-60
2022/12/21 06:10:38;;;;;;;12.70;0.95;;;;;;;;;;6151898;23;20487;-60
2022/12/21 06:13:06;;;;;;;6.20;0.60;;;;;;;;;;6161558;23;20479;-60
2022/12/21 06:15:33;;;;;;;8.43;0.70;;;;;;;;;;6145137;23;20021;-60
2022/12/21 06:18:04;;;;;;;9.70;0.77;;;;;;;;;;6158143;23;20021;-60
2022/12/21 06:20:32;;;;;;;7.13;0.50;;;;;;;;;;6148377;23;20023;-60
2022/12/21 06:23:00;;;;;;;8.27;0.70;;;;;;;;;;6158654;23;20790;-59
2022/12/21 06:25:28;;;;;;;6.27;0.47;;;;;;;;;;6151392;23;20075;-60
2022/12/21 06:27:55;;;;;;;13.57;0.57;;;;;;;;;;6151816;23;20120;-60
2022/12/21 06:30:23;;;;;;;8.70;0.52;;;;;;;;;;6152006;23;20058;-60
2022/12/21 06:32:53;;;;;;;6.93;0.55;;;;;;;;;;6154634;23;20602;-60
2022/12/21 06:35:22;;;;;;;7.60;0.60;;;;;;;;;;6150158;23;20523;-59
2022/12/21 06:37:49;;;;;;;10.33;0.87;;;;;;;;;;6156604;23;20044;-60
2022/12/21 06:40:17;;;;;;;6.50;0.40;;;;;;;;;;6144901;23;20013;-60
2022/12/21 06:42:45;;;;;;;10.25;0.65;;;;;;;;;;6155394;23;20364;-60
2022/12/21 06:45:12;;;;;;;9.35;0.57;;;;;;;;;;6151820;23;20017;-60
2022/12/21 06:47:40;;;;;;;10.85;0.68;;;;;;;;;;6154044;23;20040;-59
2022/12/21 06:50:08;;;;;;;6.07;0.50;;;;;;;;;;6155751;23;20013;-60
2022/12/21 06:52:37;;;;;;;4.80;0.70;;;;;;;;;;6157055;23;20017;-60
2022/12/21 06:55:06;;;;;;;8.85;0.52;;;;;;;;;;6157753;23;20013;-60
2022/12/21 06:57:34;;;;;;;9.43;0.50;;;;;;;;;;6146907;23;20350;-60
2022/12/21 07:00:02;;;;;;;11.02;0.63;;;;;;;;;;6162086;23;20361;-60
2022/12/21 07:02:30;;;;;;;9.50;0.70;;;;;;;;;;6148029;23;20040;-60
2022/12/21 07:04:58;;;;;;;11.85;0.60;;;;;;;;;;6156283;23;20088;-60
2022/12/21 07:07:25;;;;;;;8.60;1.02;;;;;;;;;;6150249;23;20059;-60
2022/12/21 07:09:55;;;;;;;8.90;0.60;;;;;;;;;;6157733;23;20017;-60
2022/12/21 07:12:22;;;;;;;8.70;0.50;;;;;;;;;;6149141;23;20051;-59
2022/12/21 07:14:50;;;;;;;9.50;0.50;;;;;;;;;;6159022;23;20021;-60
2022/12/21 07:17:18;;;;;;;7.22;0.85;;;;;;;;;;6147897;23;20049;-61
2022/12/21 07:19:49;;;;;;;9.45;0.45;;;;;;;;;;6155228;23;20013;-60
2022/12/21 07:22:17;;;;;;;5.70;0.60;;;;;;;;;;6147238;23;20468;-60
2022/12/21 07:24:47;;;;;;;6.68;0.55;;;;;;;;;;6154781;23;20048;-60
2022/12/21 07:27:16;;;;;;;14.27;0.63;;;;;;;;;;6160303;23;20025;-60
2022/12/21 07:29:44;;;;;;;9.10;1.80;;;;;;;;;;6147320;23;20468;-60
2022/12/21 07:32:12;;;;;;;12.27;0.80;;;;;;;;;;6161613;23;20017;-60
2022/12/21 07:34:40;;;;;;;4.32;0.52;;;;;;;;;;6153518;23;20097;-59
2022/12/21 07:37:07;;;;;;;15.00;0.60;;;;;;;;;;6142136;23;20048;-60
2022/12/21 07:39:35;;;;;;;4.97;0.57;;;;;;;;;;6158934;23;20016;-60
2022/12/21 07:42:03;;;;;;;9.50;0.45;;;;;;;;;;6150800;23;20316;-60
2022/12/21 07:44:40;;;;;;;8.50;0.60;;;;;;;;;;6161483;23;20017;-60
2022/12/21 07:47:08;;;;;;;7.90;0.55;;;;;;;;;;6140402;23;20013;-60
2022/12/21 07:49:35;;;;;;;7.55;0.63;;;;;;;;;;6154943;23;20100;-60
2022/12/21 07:52:03;;;;;;;11.23;0.90;;;;;;;;;;6155145;23;20044;-60
2022/12/21 07:54:31;;;;;;;9.25;0.60;;;;;;;;;;6149514;23;20391;-60
2022/12/21 07:56:59;;;;;;;7.95;0.60;;;;;;;;;;6161140;23;20084;-60
2022/12/21 07:59:27;;;;;;;6.50;0.50;;;;;;;;;;6144828;23;20017;-60
2022/12/21 08:01:56;;;;;;;7.20;0.47;;;;;;;;;;6157622;23;20104;-60
2022/12/21 08:04:27;;;;;;;9.27;0.70;;;;;;;;;;6147573;23;20503;-60
2022/12/21 08:06:54;;;;;;;10.73;0.57;;;;;;;;;;6161969;23;20068;-60
2022/12/21 08:09:22;;;;;;;5.55;0.50;;;;;;;;;;6149654;23;20528;-60
2022/12/21 08:11:50;;;;;;;6.90;0.80;;;;;;;;;;6155609;23;20024;-60
2022/12/21 08:14:17;;;;;;;7.32;0.73;;;;;;;;;;6148796;23;20047;-60
2022/12/21 08:16:46;;;;;;;5.03;0.40;;;;;;;;;;6147593;23;20023;-60
2022/12/21 08:19:15;;;;;;;6.95;0.50;;;;;;;;;;6155733;23;20017;-60
2022/12/21 08:21:43;;;;;;;10.43;0.50;;;;;;;;;;6151303;23;20021;-60
2022/12/21 08:24:11;;;;;;;9.30;0.50;;;;;;;;;;6151643;23;20036;-60
2022/12/21 08:26:39;;;;;;;8.80;0.50;;;;;;;;;;6151541;23;20079;-58
2022/12/21 08:29:07;;;;;;;6.90;0.33;;;;;;;;;;6160091;23;20056;-60
2022/12/21 08:31:36;;;;;;;6.53;0.30;;;;;;;;;;6145250;23;20529;-60
2022/12/21 08:34:03;;;;;;;5.22;0.50;;;;;;;;;;6142630;23;20016;-60
2022/12/21 08:36:32;;;;;;;9.60;0.50;;;;;;;;;;6152593;23;20041;-60
2022/12/21 08:39:00;;;;;;;8.68;0.43;;;;;;;;;;6147223;23;20017;-59
2022/12/21 08:41:37;;;;;;;4.03;0.30;;;;;;;;;;6158288;23;20053;-60
2022/12/21 08:44:10;;;;;;;7.10;0.55;;;;;;;;;;6149075;23;20017;-60
2022/12/21 08:46:39;;;;;;;4.93;0.30;;;;;;;;;;6150554;23;20013;-60
2022/12/21 08:49:07;;;;;;;6.68;0.40;;;;;;;;;;6160866;23;20035;-60
2022/12/21 08:51:37;;;;;;;9.65;0.40;;;;;;;;;;6156698;23;20092;-61
2022/12/21 08:54:06;;;;;;;7.23;0.50;;;;;;;;;;6157296;23;20032;-60
2022/12/21 08:56:34;;;;;;;12.73;0.77;;;;;;;;;;6152247;23;20009;-60
2022/12/21 08:59:05;;;;;;;7.57;0.70;;;;;;;;;;6157833;23;20071;-60
2022/12/21 09:01:33;;;;;;;4.13;0.40;;;;;;;;;;6162473;23;20079;-61
2022/12/21 09:04:01;;;;;;;2.75;0.43;;;;;;;;;;6150474;23;20045;-59
2022/12/21 09:06:29;;;;;;;5.37;0.50;;;;;;;;;;6157458;23;20738;-60
2022/12/21 09:08:58;;;;;;;7.65;0.77;;;;;;;;;;6149253;23;20550;-61
2022/12/21 09:11:28;;;;;;;8.48;0.52;;;;;;;;;;6157882;23;20021;-61
2022/12/21 09:14:05;;;;;;;8.48;0.43;;;;;;;;;;6151504;23;20013;-60
2022/12/21 09:16:33;;;;;;;8.95;0.70;;;;;;;;;;6152448;23;20017;-61
2022/12/21 09:19:00;;;;;;;6.20;0.50;;;;;;;;;;6150672;23;20023;-60
2022/12/21 09:21:28;;;;;;;9.77;1.00;;;;;;;;;;6160883;23;20064;-61
2022/12/21 09:23:56;;;;;;;3.42;0.30;;;;;;;;;;6144234;23;20527;-61
2022/12/21 09:26:29;;;;;;;6.20;0.38;;;;;;;;;;6149824;23;20091;-61
2022/12/21 09:28:58;;;;;;;2.72;0.40;;;;;;;;;;6160428;23;20040;-61
2022/12/21 09:31:26;;;;;;;1.80;0.20;;;;;;;;;;6152932;23;20048;-61
2022/12/21 09:33:54;;;;;;;2.65;0.25;;;;;;;;;;6146137;23;20044;-61
2022/12/21 09:36:22;;;;;;;2.42;0.20;;;;;;;;;;6144627;23;20013;-60
2022/12/21 09:38:50;;;;;;;3.00;0.22;;;;;;;;;;6146947;23;20021;-61
2022/12/21 09:41:51;;;;;;;2.78;0.20;;;;;;;;;;6159685;23;21178;-61
2022/12/21 09:44:30;;;;;;;3.13;0.20;;;;;;;;;;6036060;23;20025;-60
2022/12/21 09:47:00;;;;;;;7.60;0.25;;;;;;;;;;6030708;23;20110;-60
2022/12/21 09:49:35;;;;;;;2.75;0.20;;;;;;;;;;6099206;23;20732;-60
2022/12/21 09:52:05;;;;;;;1.38;0.20;;;;;;;;;;6153260;23;20017;-60
2022/12/21 09:54:36;;;;;;;2.70;0.20;;;;;;;;;;6158451;23;20041;-60
2022/12/21 09:57:04;;;;;;;2.13;0.30;;;;;;;;;;6154714;23;20447;-60
2022/12/21 09:59:35;;;;;;;3.72;0.30;;;;;;;;;;6152932;23;20013;-60
2022/12/21 10:02:05;;;;;;;2.97;0.30;;;;;;;;;;6154258;23;20052;-60
2022/12/21 10:04:41;;;;;;;4.25;0.47;;;;;;;;;;6149756;23;20017;-60
2022/12/21 10:07:50;;;;;;;5.68;0.40;;;;;;;;;;6149055;23;20473;-60
2022/12/21 10:10:28;;;;;;;10.00;0.50;;;;;;;;;;6093660;23;20103;-60
2022/12/21 10:13:00;;;;;;;6.05;0.30;;;;;;;;;;6153947;23;20459;-60
2022/12/21 10:15:32;;;;;;;8.23;0.52;;;;;;;;;;6127966;23;20017;-61
2022/12/21 10:18:08;;;;;;;5.85;0.68;;;;;;;;;;6157922;23;20021;-61
2022/12/21 10:20:46;;;;;;;6.20;0.30;;;;;;;;;;6155777;23;20223;-62
2022/12/21 10:23:17;;;;;;;10.40;0.70;;;;;;;;;;6139112;23;20040;-62
2022/12/21 10:25:46;;;;;;;6.47;0.70;;;;;;;;;;6158395;23;20040;-62
2022/12/21 10:28:32;;;;;;;6.93;0.30;;;;;;;;;;6145411;23;20024;-62
2022/12/21 10:31:03;;;;;;;6.20;0.60;;;;;;;;;;6134406;23;20107;-59
2022/12/21 10:33:31;;;;;;;5.72;0.40;;;;;;;;;;6156507;23;20018;-61
2022/12/21 10:36:01;;;;;;;4.17;0.30;;;;;;;;;;6156949;23;20068;-61
2022/12/21 10:38:33;;;;;;;8.50;0.60;;;;;;;;;;6152389;23;20021;-62
2022/12/21 10:41:02;;;;;;;6.18;0.30;;;;;;;;;;6159311;23;20581;-61
2022/12/21 10:43:31;;;;;;;6.70;0.40;;;;;;;;;;6150152;23;20017;-62
2022/12/21 10:45:59;;;;;;;7.45;0.47;;;;;;;;;;6154335;23;20012;-62
2022/12/21 10:48:28;;;;;;;8.37;0.67;;;;;;;;;;6149925;23;20040;-62
2022/12/21 10:51:00;;;;;;;5.55;0.60;;;;;;;;;;6152452;23;20103;-62
2022/12/21 10:53:29;;;;;;;7.07;0.47;;;;;;;;;;6147166;23;20009;-61
2022/12/21 10:55:58;;;;;;;6.78;0.55;;;;;;;;;;6153145;23;20047;-61
2022/12/21 10:58:27;;;;;;;6.85;0.50;;;;;;;;;;6155218;23;20090;-62
2022/12/21 11:00:57;;;;;;;4.10;0.33;;;;;;;;;;6162869;23;20083;-61
2022/12/21 11:03:29;;;;;;;6.80;0.50;;;;;;;;;;6145112;23;20423;-62
2022/12/21 11:05:57;;;;;;;4.57;0.50;;;;;;;;;;6145432;23;20905;-62
2022/12/21 11:08:27;;;;;;;9.05;0.40;;;;;;;;;;6148136;23;20021;-61
2022/12/21 11:10:55;;;;;;;8.35;0.90;;;;;;;;;;6149236;23;20381;-62
2022/12/21 11:13:25;;;;;;;5.33;0.40;;;;;;;;;;6143940;23;20017;-61
2022/12/21 11:15:54;;;;;;;4.97;0.40;;;;;;;;;;6151247;23;20017;-62
2022/12/21 11:18:35;;;;;;;7.88;1.00;;;;;;;;;;6154829;23;20040;-61
2022/12/21 11:21:04;;;;;;;6.68;0.40;;;;;;;;;;6146059;23;20056;-61
2022/12/21 11:23:33;;;;;;;11.80;0.60;;;;;;;;;;6153980;23;20479;-61
2022/12/21 11:26:01;;;;;;;6.13;0.50;;;;;;;;;;6149682;23;20067;-60
2022/12/21 11:28:29;;;;;;;5.95;0.30;;;;;;;;;;6137220;23;20097;-61
2022/12/21 11:31:01;;;;;;;5.75;0.52;;;;;;;;;;6138013;23;20107;-61
2022/12/21 11:33:30;;;;;;;8.32;0.57;;;;;;;;;;6139053;23;20027;-61
2022/12/21 11:36:13;;;;;;;9.00;0.45;;;;;;;;;;6149778;23;20460;-61
2022/12/21 11:38:41;;;;;;;3.03;0.40;;;;;;;;;;6130755;23;20024;-61
2022/12/21 11:41:10;;;;;;;4.43;0.40;;;;;;;;;;6147356;23;20021;-62
2022/12/21 11:43:44;;;;;;;5.47;0.50;;;;;;;;;;6146238;23;20366;-61
2022/12/21 11:46:16;;;;;;;7.00;0.32;;;;;;;;;;6149813;23;20017;-61
2022/12/21 11:49:13;;;;;;;3.50;0.30;;;;;;;;;;6155825;23;20028;-62
2022/12/21 11:51:48;;;;;;;6.67;0.40;;;;;;;;;;6148912;23;20021;-62
2022/12/21 11:54:28;;;;;;;6.05;0.63;;;;;;;;;;6149539;23;20048;-61
2022/12/21 11:57:01;;;;;;;5.53;0.40;;;;;;;;;;6157662;23;20017;-62
2022/12/21 11:59:44;;;;;;;5.10;0.60;;;;;;;;;;6142559;23;20150;-61
2022/12/21 12:02:27;;;;;;;7.80;0.65;;;;;;;;;;6157334;23;20021;-61
2022/12/21 12:05:07;;;;;;;7.83;0.60;;;;;;;;;;6151401;23;20021;-61
2022/12/21 12:07:49;;;;;;;7.13;0.30;;;;;;;;;;6145370;23;20349;-61
2022/12/21 12:10:28;;;;;;;8.00;0.50;;;;;;;;;;6145067;23;20350;-61
2022/12/21 12:13:03;;;;;;;5.95;0.50;;;;;;;;;;6157485;23;20025;-62
2022/12/21 12:15:37;;;;;;;4.63;0.70;;;;;;;;;;6139103;23;20285;-61
2022/12/21 12:18:09;;;;;;;3.80;0.30;;;;;;;;;;6148246;23;20087;-61
2022/12/21 12:20:46;;;;;;;5.53;0.50;;;;;;;;;;6148944;23;20447;-61
2022/12/21 12:23:22;;;;;;;6.78;0.57;;;;;;;;;;6151576;23;20017;-61
2022/12/21 12:25:59;;;;;;;3.75;0.43;;;;;;;;;;6151821;23;20056;-61
2022/12/21 12:28:38;;;;;;;2.60;0.30;;;;;;;;;;6149009;23;20087;-60
2022/12/21 12:31:15;;;;;;;2.43;0.30;;;;;;;;;;6155908;23;20021;-61
2022/12/21 12:33:49;;;;;;;4.15;0.30;;;;;;;;;;6147468;23;20021;-61
2022/12/21 12:36:22;;;;;;;3.47;0.35;;;;;;;;;;6151065;23;20013;-61
2022/12/21 12:38:57;;;;;;;3.17;0.30;;;;;;;;;;6146889;23;20279;-61
2022/12/21 12:41:31;;;;;;;6.68;0.50;;;;;;;;;;6156556;23;20017;-61
2022/12/21 12:44:01;;;;;;;5.63;0.60;;;;;;;;;;6144753;23;20129;-61
2022/12/21 12:46:40;;;;;;;9.05;0.70;;;;;;;;;;6152436;23;20036;-61
2022/12/21 12:49:15;;;;;;;6.65;0.55;;;;;;;;;;6157148;23;20033;-61
2022/12/21 12:51:46;;;;;;;5.90;0.40;;;;;;;;;;6153350;23;20021;-61
2022/12/21 12:54:20;;;;;;;6.53;0.40;;;;;;;;;;6151445;23;20027;-61
2022/12/21 12:56:51;;;;;;;6.20;0.50;;;;;;;;;;6154161;23;20017;-61
2022/12/21 12:59:23;;;;;;;3.35;0.30;;;;;;;;;;6151980;23;20124;-61
2022/12/21 13:01:54;;;;;;;4.00;0.40;;;;;;;;;;6153888;23;20064;-61
2022/12/21 13:04:44;;;;;;;5.03;0.30;;;;;;;;;;6141650;23;20021;-61
2022/12/21 13:07:15;;;;;;;7.68;0.40;;;;;;;;;;6153671;23;20021;-61
2022/12/21 13:09:48;;;;;;;8.87;0.50;;;;;;;;;;6147774;23;20013;-61
2022/12/21 13:12:20;;;;;;;5.13;0.45;;;;;;;;;;6144520;23;20025;-61
2022/12/21 13:14:49;;;;;;;7.47;0.60;;;;;;;;;;6152354;23;20120;-61
2022/12/21 13:17:19;;;;;;;4.38;0.32;;;;;;;;;;6147145;23;20028;-61
2022/12/21 13:19:49;;;;;;;5.93;1.42;;;;;;;;;;6150065;23;20075;-60
2022/12/21 13:22:18;;;;;;;4.77;0.30;;;;;;;;;;6149450;23;20446;-61
2022/12/21 13:24:49;;;;;;;4.55;0.30;;;;;;;;;;6153367;23;20411;-61
2022/12/21 13:27:20;;;;;;;6.88;0.52;;;;;;;;;;6144867;23;20021;-61
2022/12/21 13:29:54;;;;;;;7.18;0.70;;;;;;;;;;6157906;23;20071;-60
2022/12/21 13:32:23;;;;;;;6.40;0.50;;;;;;;;;;6142816;23;20079;-61
2022/12/21 13:35:05;;;;;;;4.23;0.33;;;;;;;;;;6153265;23;20043;-61
2022/12/21 13:37:33;;;;;;;6.38;0.35;;;;;;;;;;6141673;23;20028;-61
2022/12/21 13:40:06;;;;;;;4.60;0.40;;;;;;;;;;6179562;23;20104;-61
2022/12/21 13:42:37;;;;;;;6.03;0.68;;;;;;;;;;6154749;23;20048;-61
2022/12/21 13:45:11;;;;;;;5.82;0.45;;;;;;;;;;6141683;23;20104;-61
2022/12/21 13:47:39;;;;;;;3.67;0.40;;;;;;;;;;6150241;23;20017;-61
2022/12/21 13:50:17;;;;;;;2.33;0.30;;;;;;;;;;6152365;23;20043;-61
2022/12/21 13:52:46;;;;;;;3.47;0.43;;;;;;;;;;6155347;23;20063;-61
2022/12/21 13:55:22;;;;;;;8.02;0.60;;;;;;;;;;6156786;23;20021;-61
2022/12/21 13:57:56;;;;;;;4.38;0.40;;;;;;;;;;6152012;23;20276;-61
2022/12/21 14:00:26;;;;;;;3.03;0.40;;;;;;;;;;6147180;23;20191;-61
2022/12/21 14:02:56;;;;;;;4.00;0.57;;;;;;;;;;6151532;23;20041;-61
2022/12/21 14:05:27;;;;;;;5.05;0.40;;;;;;;;;;6163331;23;20023;-61
2022/12/21 14:08:15;;;;;;;7.05;0.40;;;;;;;;;;6156217;23;20025;-61
2022/12/21 14:10:50;;;;;;;6.22;0.60;;;;;;;;;;6146651;23;20040;-61
2022/12/21 14:13:35;;;;;;;4.23;0.40;;;;;;;;;;6148871;23;20077;-62
2022/12/21 14:16:03;;;;;;;2.65;0.30;;;;;;;;;;6153955;23;20461;-61
2022/12/21 14:18:33;;;;;;;7.88;0.50;;;;;;;;;;6153112;23;20021;-61
2022/12/21 14:21:02;;;;;;;4.43;0.20;;;;;;;;;;6152650;23;20017;-61
2022/12/21 14:23:31;;;;;;;3.30;0.30;;;;;;;;;;6162567;23;20504;-61
2022/12/21 14:26:02;;;;;;;4.30;0.40;;;;;;;;;;6137909;23;20430;-62
2022/12/21 14:28:31;;;;;;;3.67;0.40;;;;;;;;;;6160140;23;20044;-61
2022/12/21 14:31:01;;;;;;;6.90;0.73;;;;;;;;;;6154622;23;20075;-61
2022/12/21 14:33:32;;;;;;;5.70;0.35;;;;;;;;;;6146295;23;20055;-60
2022/12/21 14:36:26;;;;;;;3.05;0.38;;;;;;;;;;6154117;23;20095;-59
2022/12/21 14:39:13;;;;;;;3.70;0.40;;;;;;;;;;6144857;23;20049;-60
2022/12/21 14:41:44;;;;;;;3.13;0.38;;;;;;;;;;6149381;23;20016;-58
2022/12/21 14:44:31;;;;;;;2.05;0.30;;;;;;;;;;6153280;23;20325;-59
2022/12/21 14:47:03;;;;;;;4.82;0.30;;;;;;;;;;6159008;23;20021;-60
2022/12/21 14:49:31;;;;;;;4.47;0.55;;;;;;;;;;6144239;23;20025;-59
2022/12/21 14:52:00;;;;;;;5.07;0.40;;;;;;;;;;6154202;23;20585;-59
2022/12/21 14:54:32;;;;;;;3.45;0.32;;;;;;;;;;6152553;23;20017;-59
2022/12/21 14:57:18;;;;;;;4.22;0.20;;;;;;;;;;6158327;23;20014;-59
2022/12/21 14:59:49;;;;;;;6.25;0.30;;;;;;;;;;6144434;23;20321;-59
2022/12/21 15:02:22;;;;;;;4.38;0.30;;;;;;;;;;6160989;23;20040;-59
2022/12/21 15:04:51;;;;;;;4.50;0.20;;;;;;;;;;6152371;23;20246;-59
2022/12/21 15:07:20;;;;;;;6.63;0.30;;;;;;;;;;6153804;23;20456;-59
2022/12/21 15:09:53;;;;;;;5.10;0.20;;;;;;;;;;6141207;23;20013;-59
2022/12/21 15:12:41;;;;;;;6.65;0.55;;;;;;;;;;6151412;23;20112;-59